sensor_id;sensor_type;location;lat;lon;timestamp;temperature;humidity
33594;DHT22;19920;52.242;20.940;2024-01-06T00:00:54;0.20;99.90
33594;DHT22;19920;52.242;20.940;2024-01-06T00:03:19;0.00;99.90
33594;DHT22;19920;52.242;20.940;2024-01-06T00:05:45;0.10;99.90
33594;DHT22;19920;52.242;20.940;2024-01-06T00:08:10;0.20;99.90
33594;DHT22;19920;52.242;20.940;2024-01-06T00:10:36;0.10;99.90
33594;DHT22;19920;52.242;20.940;2024-01-06T00:13:02;0.10;99.90
33594;DHT22;19920;52.242;20.940;2024-01-06T00:15:27;0.10;99.90
33594;DHT22;19920;52.242;20.940;2024-01-06T00:17:53;0.10;99.90
33594;DHT22;19920;52.242;20.940;2024-01-06T00:20:18;0.10;99.90
33594;DHT22;19920;52.242;20.940;2024-01-06T00:22:44;0.10;99.90
33594;DHT22;19920;52.242;20.940;2024-01-06T00:25:09;0.10;99.90
33594;DHT22;19920;52.242;20.940;2024-01-06T00:27:35;-0.10;99.90
33594;DHT22;19920;52.242;20.940;2024-01-06T00:30:00;-0.10;99.90
33594;DHT22;19920;52.242;20.940;2024-01-06T00:32:26;-0.10;99.90
33594;DHT22;19920;52.242;20.940;2024-01-06T00:34:52;0.10;99.90
33594;DHT22;19920;52.242;20.940;2024-01-06T00:37:17;-0.10;99.90
33594;DHT22;19920;52.242;20.940;2024-01-06T00:39:43;0.00;99.90
33594;DHT22;19920;52.242;20.940;2024-01-06T00:42:08;0.10;99.90
33594;DHT22;19920;52.242;20.940;2024-01-06T00:44:36;0.10;99.90
33594;DHT22;19920;52.242;20.940;2024-01-06T00:47:01;0.00;99.90
33594;DHT22;19920;52.242;20.940;2024-01-06T00:49:27;0.00;99.90
33594;DHT22;19920;52.242;20.940;2024-01-06T00:51:52;0.00;99.90
33594;DHT22;19920;52.242;20.940;2024-01-06T00:54:18;0.00;99.90
33594;DHT22;19920;52.242;20.940;2024-01-06T00:56:43;-0.10;99.90
33594;DHT22;19920;52.242;20.940;2024-01-06T00:59:09;0.00;99.90
33594;DHT22;19920;52.242;20.940;2024-01-06T01:01:35;-0.10;99.90
33594;DHT22;19920;52.242;20.940;2024-01-06T01:04:00;0.00;99.90
33594;DHT22;19920;52.242;20.940;2024-01-06T01:06:26;0.10;99.90
33594;DHT22;19920;52.242;20.940;2024-01-06T01:08:52;-0.10;99.90
33594;DHT22;19920;52.242;20.940;2024-01-06T01:11:18;-0.10;99.90
33594;DHT22;19920;52.242;20.940;2024-01-06T01:13:44;-0.10;99.90
33594;DHT22;19920;52.242;20.940;2024-01-06T01:16:10;-0.10;99.90
33594;DHT22;19920;52.242;20.940;2024-01-06T01:18:35;0.00;99.90
33594;DHT22;19920;52.242;20.940;2024-01-06T01:21:01;0.00;99.90
33594;DHT22;19920;52.242;20.940;2024-01-06T01:23:27;-0.10;99.90
33594;DHT22;19920;52.242;20.940;2024-01-06T01:25:53;-0.10;99.90
33594;DHT22;19920;52.242;20.940;2024-01-06T01:28:19;-0.20;99.90
33594;DHT22;19920;52.242;20.940;2024-01-06T01:30:44;-0.10;99.90
33594;DHT22;19920;52.242;20.940;2024-01-06T01:33:10;-0.20;99.90
33594;DHT22;19920;52.242;20.940;2024-01-06T01:35:35;-0.20;99.90
33594;DHT22;19920;52.242;20.940;2024-01-06T01:38:01;-0.10;99.90
33594;DHT22;19920;52.242;20.940;2024-01-06T01:40:26;-0.10;99.90
33594;DHT22;19920;52.242;20.940;2024-01-06T01:42:52;-0.20;99.90
33594;DHT22;19920;52.242;20.940;2024-01-06T01:45:17;-0.10;99.90
33594;DHT22;19920;52.242;20.940;2024-01-06T01:47:43;-0.10;99.90
33594;DHT22;19920;52.242;20.940;2024-01-06T01:50:12;-0.10;99.90
33594;DHT22;19920;52.242;20.940;2024-01-06T01:52:39;-0.10;99.90
33594;DHT22;19920;52.242;20.940;2024-01-06T01:55:05;-0.10;99.90
33594;DHT22;19920;52.242;20.940;2024-01-06T01:57:31;-0.20;99.90
33594;DHT22;19920;52.242;20.940;2024-01-06T01:59:57;-0.20;99.90
33594;DHT22;19920;52.242;20.940;2024-01-06T02:02:23;-0.20;99.90
33594;DHT22;19920;52.242;20.940;2024-01-06T02:04:48;-0.20;99.90
33594;DHT22;19920;52.242;20.940;2024-01-06T02:07:14;-0.10;99.90
33594;DHT22;19920;52.242;20.940;2024-01-06T02:09:40;-0.10;99.90
33594;DHT22;19920;52.242;20.940;2024-01-06T02:12:06;-0.10;99.90
33594;DHT22;19920;52.242;20.940;2024-01-06T02:14:31;-0.10;99.90
33594;DHT22;19920;52.242;20.940;2024-01-06T02:16:58;-0.10;99.90
33594;DHT22;19920;52.242;20.940;2024-01-06T02:19:24;-0.10;99.90
33594;DHT22;19920;52.242;20.940;2024-01-06T02:21:53;-0.20;99.90
33594;DHT22;19920;52.242;20.940;2024-01-06T02:24:20;-0.20;99.90
33594;DHT22;19920;52.242;20.940;2024-01-06T02:26:45;-0.20;99.90
33594;DHT22;19920;52.242;20.940;2024-01-06T02:29:11;-0.20;99.90
33594;DHT22;19920;52.242;20.940;2024-01-06T02:31:36;-0.20;99.90
33594;DHT22;19920;52.242;20.940;2024-01-06T02:34:02;-0.30;99.90
33594;DHT22;19920;52.242;20.940;2024-01-06T02:36:27;-0.30;99.90
33594;DHT22;19920;52.242;20.940;2024-01-06T02:38:53;-0.20;99.90
33594;DHT22;19920;52.242;20.940;2024-01-06T02:41:19;-0.20;99.90
33594;DHT22;19920;52.242;20.940;2024-01-06T02:43:44;-0.30;99.90
33594;DHT22;19920;52.242;20.940;2024-01-06T02:46:10;-0.20;99.90
33594;DHT22;19920;52.242;20.940;2024-01-06T02:48:35;-0.20;99.90
33594;DHT22;19920;52.242;20.940;2024-01-06T02:51:01;-0.20;99.90
33594;DHT22;19920;52.242;20.940;2024-01-06T02:53:26;-0.30;99.90
33594;DHT22;19920;52.242;20.940;2024-01-06T02:55:52;-0.30;99.90
33594;DHT22;19920;52.242;20.940;2024-01-06T02:58:17;-0.20;99.90
33594;DHT22;19920;52.242;20.940;2024-01-06T03:00:43;-0.20;99.90
33594;DHT22;19920;52.242;20.940;2024-01-06T03:03:08;-0.20;99.90
33594;DHT22;19920;52.242;20.940;2024-01-06T03:05:34;-0.10;99.90
33594;DHT22;19920;52.242;20.940;2024-01-06T03:08:00;0.00;99.90
33594;DHT22;19920;52.242;20.940;2024-01-06T03:10:26;-0.10;99.90
33594;DHT22;19920;52.242;20.940;2024-01-06T03:12:51;-0.20;99.90
33594;DHT22;19920;52.242;20.940;2024-01-06T03:15:17;-0.10;99.90
33594;DHT22;19920;52.242;20.940;2024-01-06T03:17:43;0.00;99.90
33594;DHT22;19920;52.242;20.940;2024-01-06T03:20:08;0.00;99.90
33594;DHT22;19920;52.242;20.940;2024-01-06T03:22:34;-0.10;99.90
33594;DHT22;19920;52.242;20.940;2024-01-06T03:25:00;-0.10;99.90
33594;DHT22;19920;52.242;20.940;2024-01-06T03:27:25;-0.20;99.90
33594;DHT22;19920;52.242;20.940;2024-01-06T03:29:51;-0.10;99.90
33594;DHT22;19920;52.242;20.940;2024-01-06T03:32:16;-0.20;99.90
33594;DHT22;19920;52.242;20.940;2024-01-06T03:34:42;-0.20;99.90
33594;DHT22;19920;52.242;20.940;2024-01-06T03:37:08;-0.30;99.90
33594;DHT22;19920;52.242;20.940;2024-01-06T03:39:33;-0.30;99.90
33594;DHT22;19920;52.242;20.940;2024-01-06T03:42:00;-0.30;99.90
33594;DHT22;19920;52.242;20.940;2024-01-06T03:44:25;-0.10;99.90
33594;DHT22;19920;52.242;20.940;2024-01-06T03:46:58;-0.20;99.90
33594;DHT22;19920;52.242;20.940;2024-01-06T03:49:24;-0.10;99.90
33594;DHT22;19920;52.242;20.940;2024-01-06T03:51:50;-0.10;99.90
33594;DHT22;19920;52.242;20.940;2024-01-06T03:54:15;0.00;99.90
33594;DHT22;19920;52.242;20.940;2024-01-06T03:56:41;-0.10;99.90
33594;DHT22;19920;52.242;20.940;2024-01-06T03:59:06;0.00;99.90
33594;DHT22;19920;52.242;20.940;2024-01-06T04:01:32;0.10;99.90
33594;DHT22;19920;52.242;20.940;2024-01-06T04:04:01;0.00;99.90
33594;DHT22;19920;52.242;20.940;2024-01-06T04:06:27;0.00;99.90
33594;DHT22;19920;52.242;20.940;2024-01-06T04:08:52;0.10;99.90
33594;DHT22;19920;52.242;20.940;2024-01-06T04:11:20;0.10;99.90
33594;DHT22;19920;52.242;20.940;2024-01-06T04:13:46;0.10;99.90
33594;DHT22;19920;52.242;20.940;2024-01-06T04:16:12;0.10;99.90
33594;DHT22;19920;52.242;20.940;2024-01-06T04:18:37;0.00;99.90
33594;DHT22;19920;52.242;20.940;2024-01-06T04:21:03;0.00;99.90
33594;DHT22;19920;52.242;20.940;2024-01-06T04:23:30;0.10;99.90
33594;DHT22;19920;52.242;20.940;2024-01-06T04:25:56;0.10;99.90
33594;DHT22;19920;52.242;20.940;2024-01-06T04:28:21;0.10;99.90
33594;DHT22;19920;52.242;20.940;2024-01-06T04:30:47;0.10;99.90
33594;DHT22;19920;52.242;20.940;2024-01-06T04:33:12;0.10;99.90
33594;DHT22;19920;52.242;20.940;2024-01-06T04:35:38;0.10;99.90
33594;DHT22;19920;52.242;20.940;2024-01-06T04:38:04;0.10;99.90
33594;DHT22;19920;52.242;20.940;2024-01-06T04:40:30;0.00;99.90
33594;DHT22;19920;52.242;20.940;2024-01-06T04:42:55;0.20;99.90
33594;DHT22;19920;52.242;20.940;2024-01-06T04:45:21;0.00;99.90
33594;DHT22;19920;52.242;20.940;2024-01-06T04:47:49;0.00;99.90
33594;DHT22;19920;52.242;20.940;2024-01-06T04:50:14;0.10;99.90
33594;DHT22;19920;52.242;20.940;2024-01-06T04:52:40;0.10;99.90
33594;DHT22;19920;52.242;20.940;2024-01-06T04:55:06;0.00;99.90
33594;DHT22;19920;52.242;20.940;2024-01-06T04:57:31;0.00;99.90
33594;DHT22;19920;52.242;20.940;2024-01-06T04:59:57;-0.10;99.90
33594;DHT22;19920;52.242;20.940;2024-01-06T05:02:23;-0.10;99.90
33594;DHT22;19920;52.242;20.940;2024-01-06T05:04:49;0.00;99.90
33594;DHT22;19920;52.242;20.940;2024-01-06T05:07:15;0.00;99.90
33594;DHT22;19920;52.242;20.940;2024-01-06T05:09:40;0.00;99.90
33594;DHT22;19920;52.242;20.940;2024-01-06T05:12:06;-0.10;99.90
33594;DHT22;19920;52.242;20.940;2024-01-06T05:14:32;0.00;99.90
33594;DHT22;19920;52.242;20.940;2024-01-06T05:16:57;-0.10;99.90
33594;DHT22;19920;52.242;20.940;2024-01-06T05:19:23;-0.10;99.90
33594;DHT22;19920;52.242;20.940;2024-01-06T05:21:49;-0.20;99.90
33594;DHT22;19920;52.242;20.940;2024-01-06T05:24:14;-0.10;99.90
33594;DHT22;19920;52.242;20.940;2024-01-06T05:26:40;-0.20;99.90
33594;DHT22;19920;52.242;20.940;2024-01-06T05:29:06;-0.20;99.90
33594;DHT22;19920;52.242;20.940;2024-01-06T05:31:31;-0.10;99.90
33594;DHT22;19920;52.242;20.940;2024-01-06T05:33:57;-0.10;99.90
33594;DHT22;19920;52.242;20.940;2024-01-06T05:36:22;-0.10;99.90
33594;DHT22;19920;52.242;20.940;2024-01-06T05:38:48;-0.10;99.90
33594;DHT22;19920;52.242;20.940;2024-01-06T05:41:13;-0.10;99.90
33594;DHT22;19920;52.242;20.940;2024-01-06T05:43:39;-0.10;99.90
33594;DHT22;19920;52.242;20.940;2024-01-06T05:46:05;-0.10;99.90
33594;DHT22;19920;52.242;20.940;2024-01-06T05:48:30;-0.10;99.90
33594;DHT22;19920;52.242;20.940;2024-01-06T05:50:56;-0.20;99.90
33594;DHT22;19920;52.242;20.940;2024-01-06T05:53:21;-0.10;99.90
33594;DHT22;19920;52.242;20.940;2024-01-06T05:55:47;-0.10;99.90
33594;DHT22;19920;52.242;20.940;2024-01-06T05:58:13;-0.10;99.90
33594;DHT22;19920;52.242;20.940;2024-01-06T06:00:39;-0.30;99.90
33594;DHT22;19920;52.242;20.940;2024-01-06T06:03:05;-0.30;99.90
33594;DHT22;19920;52.242;20.940;2024-01-06T06:05:33;-0.20;99.90
33594;DHT22;19920;52.242;20.940;2024-01-06T06:07:58;-0.20;99.90
33594;DHT22;19920;52.242;20.940;2024-01-06T06:10:24;-0.20;99.90
33594;DHT22;19920;52.242;20.940;2024-01-06T06:12:55;-0.10;99.90
33594;DHT22;19920;52.242;20.940;2024-01-06T06:15:21;-0.10;99.90
33594;DHT22;19920;52.242;20.940;2024-01-06T06:17:46;-0.10;99.90
33594;DHT22;19920;52.242;20.940;2024-01-06T06:20:12;-0.10;99.90
33594;DHT22;19920;52.242;20.940;2024-01-06T06:22:37;-0.20;99.90
33594;DHT22;19920;52.242;20.940;2024-01-06T06:25:03;-0.30;99.90
33594;DHT22;19920;52.242;20.940;2024-01-06T06:27:29;-0.20;99.90
33594;DHT22;19920;52.242;20.940;2024-01-06T06:29:55;-0.20;99.90
33594;DHT22;19920;52.242;20.940;2024-01-06T06:32:22;-0.20;99.90
33594;DHT22;19920;52.242;20.940;2024-01-06T06:34:47;-0.20;99.90
33594;DHT22;19920;52.242;20.940;2024-01-06T06:37:13;-0.20;99.90
33594;DHT22;19920;52.242;20.940;2024-01-06T06:39:38;-0.20;99.90
33594;DHT22;19920;52.242;20.940;2024-01-06T06:42:04;-0.20;99.90
33594;DHT22;19920;52.242;20.940;2024-01-06T06:44:30;-0.20;99.90
33594;DHT22;19920;52.242;20.940;2024-01-06T06:46:56;-0.20;99.90
33594;DHT22;19920;52.242;20.940;2024-01-06T06:49:22;-0.30;99.90
33594;DHT22;19920;52.242;20.940;2024-01-06T06:51:47;-0.30;99.90
33594;DHT22;19920;52.242;20.940;2024-01-06T06:54:14;-0.10;99.90
33594;DHT22;19920;52.242;20.940;2024-01-06T06:56:44;-0.10;99.90
33594;DHT22;19920;52.242;20.940;2024-01-06T06:59:09;0.00;99.90
33594;DHT22;19920;52.242;20.940;2024-01-06T07:01:35;-0.10;99.90
33594;DHT22;19920;52.242;20.940;2024-01-06T07:04:01;-0.10;99.90
33594;DHT22;19920;52.242;20.940;2024-01-06T07:06:28;-0.10;99.90
33594;DHT22;19920;52.242;20.940;2024-01-06T07:08:54;-0.10;99.90
33594;DHT22;19920;52.242;20.940;2024-01-06T07:11:20;-0.10;99.90
33594;DHT22;19920;52.242;20.940;2024-01-06T07:13:45;-0.20;99.90
33594;DHT22;19920;52.242;20.940;2024-01-06T07:16:11;-0.20;99.90
33594;DHT22;19920;52.242;20.940;2024-01-06T07:18:37;-0.20;99.90
33594;DHT22;19920;52.242;20.940;2024-01-06T07:21:04;-0.10;99.90
33594;DHT22;19920;52.242;20.940;2024-01-06T07:23:31;-0.10;99.90
33594;DHT22;19920;52.242;20.940;2024-01-06T07:25:57;-0.20;99.90
33594;DHT22;19920;52.242;20.940;2024-01-06T07:28:23;-0.10;99.90
33594;DHT22;19920;52.242;20.940;2024-01-06T07:30:48;-0.20;99.90
33594;DHT22;19920;52.242;20.940;2024-01-06T07:33:14;-0.20;99.90
33594;DHT22;19920;52.242;20.940;2024-01-06T07:35:40;-0.10;99.90
33594;DHT22;19920;52.242;20.940;2024-01-06T07:38:11;-0.20;99.90
33594;DHT22;19920;52.242;20.940;2024-01-06T07:40:37;-0.20;99.90
33594;DHT22;19920;52.242;20.940;2024-01-06T07:43:03;-0.20;99.90
33594;DHT22;19920;52.242;20.940;2024-01-06T07:45:30;-0.10;99.90
33594;DHT22;19920;52.242;20.940;2024-01-06T07:47:55;-0.10;99.90
33594;DHT22;19920;52.242;20.940;2024-01-06T07:50:21;-0.20;99.90
33594;DHT22;19920;52.242;20.940;2024-01-06T07:52:46;-0.10;99.90
33594;DHT22;19920;52.242;20.940;2024-01-06T07:55:12;-0.10;99.90
33594;DHT22;19920;52.242;20.940;2024-01-06T07:57:37;-0.10;99.90
33594;DHT22;19920;52.242;20.940;2024-01-06T08:00:03;-0.10;99.90
33594;DHT22;19920;52.242;20.940;2024-01-06T08:02:29;0.00;99.90
33594;DHT22;19920;52.242;20.940;2024-01-06T08:04:55;-0.10;99.90
33594;DHT22;19920;52.242;20.940;2024-01-06T08:07:21;0.00;99.90
33594;DHT22;19920;52.242;20.940;2024-01-06T08:09:47;0.10;99.90
33594;DHT22;19920;52.242;20.940;2024-01-06T08:12:12;0.10;99.90
33594;DHT22;19920;52.242;20.940;2024-01-06T08:14:38;0.20;99.90
33594;DHT22;19920;52.242;20.940;2024-01-06T08:17:04;0.20;99.90
33594;DHT22;19920;52.242;20.940;2024-01-06T08:19:29;0.20;99.90
33594;DHT22;19920;52.242;20.940;2024-01-06T08:21:57;0.20;99.90
33594;DHT22;19920;52.242;20.940;2024-01-06T08:24:22;0.30;99.90
33594;DHT22;19920;52.242;20.940;2024-01-06T08:26:48;0.20;99.90
33594;DHT22;19920;52.242;20.940;2024-01-06T08:29:13;0.20;99.90
33594;DHT22;19920;52.242;20.940;2024-01-06T08:31:41;0.30;99.90
33594;DHT22;19920;52.242;20.940;2024-01-06T08:34:07;0.30;99.90
33594;DHT22;19920;52.242;20.940;2024-01-06T08:36:34;0.30;99.90
33594;DHT22;19920;52.242;20.940;2024-01-06T08:38:59;0.20;99.90
33594;DHT22;19920;52.242;20.940;2024-01-06T08:41:25;0.40;99.90
33594;DHT22;19920;52.242;20.940;2024-01-06T08:43:51;0.20;99.90
33594;DHT22;19920;52.242;20.940;2024-01-06T08:46:17;0.20;99.90
33594;DHT22;19920;52.242;20.940;2024-01-06T08:48:42;0.30;99.90
33594;DHT22;19920;52.242;20.940;2024-01-06T08:51:08;0.20;99.90
33594;DHT22;19920;52.242;20.940;2024-01-06T08:53:34;0.20;99.90
33594;DHT22;19920;52.242;20.940;2024-01-06T08:55:59;0.10;99.90
33594;DHT22;19920;52.242;20.940;2024-01-06T08:58:25;0.10;99.90
33594;DHT22;19920;52.242;20.940;2024-01-06T09:00:51;0.10;99.90
33594;DHT22;19920;52.242;20.940;2024-01-06T09:03:18;0.20;99.90
33594;DHT22;19920;52.242;20.940;2024-01-06T09:05:51;0.10;99.90
33594;DHT22;19920;52.242;20.940;2024-01-06T09:08:16;0.10;99.90
33594;DHT22;19920;52.242;20.940;2024-01-06T09:10:42;0.30;99.90
33594;DHT22;19920;52.242;20.940;2024-01-06T09:13:08;0.20;99.90
33594;DHT22;19920;52.242;20.940;2024-01-06T09:15:34;0.20;99.90
33594;DHT22;19920;52.242;20.940;2024-01-06T09:17:59;0.20;99.90
33594;DHT22;19920;52.242;20.940;2024-01-06T09:20:25;0.10;99.90
33594;DHT22;19920;52.242;20.940;2024-01-06T09:22:52;0.10;99.90
33594;DHT22;19920;52.242;20.940;2024-01-06T09:25:18;0.10;99.90
33594;DHT22;19920;52.242;20.940;2024-01-06T09:27:43;0.00;99.90
33594;DHT22;19920;52.242;20.940;2024-01-06T09:30:09;0.00;99.90
33594;DHT22;19920;52.242;20.940;2024-01-06T09:32:35;0.10;99.90
33594;DHT22;19920;52.242;20.940;2024-01-06T09:35:00;0.20;99.90
33594;DHT22;19920;52.242;20.940;2024-01-06T09:37:26;0.30;99.90
33594;DHT22;19920;52.242;20.940;2024-01-06T09:39:51;0.30;99.90
33594;DHT22;19920;52.242;20.940;2024-01-06T09:42:17;0.30;99.90
33594;DHT22;19920;52.242;20.940;2024-01-06T09:44:43;0.40;99.90
33594;DHT22;19920;52.242;20.940;2024-01-06T09:47:11;0.30;99.90
33594;DHT22;19920;52.242;20.940;2024-01-06T09:49:38;0.20;99.90
33594;DHT22;19920;52.242;20.940;2024-01-06T09:52:08;0.30;99.90
33594;DHT22;19920;52.242;20.940;2024-01-06T09:54:39;0.40;99.90
33594;DHT22;19920;52.242;20.940;2024-01-06T09:57:06;0.30;99.90
33594;DHT22;19920;52.242;20.940;2024-01-06T09:59:32;0.30;99.90
33594;DHT22;19920;52.242;20.940;2024-01-06T10:02:01;0.30;99.90
33594;DHT22;19920;52.242;20.940;2024-01-06T10:04:27;0.20;99.90
33594;DHT22;19920;52.242;20.940;2024-01-06T10:06:52;0.20;99.90
33594;DHT22;19920;52.242;20.940;2024-01-06T10:09:27;0.20;99.90
33594;DHT22;19920;52.242;20.940;2024-01-06T10:11:55;0.30;99.90
33594;DHT22;19920;52.242;20.940;2024-01-06T10:14:23;0.30;99.90
33594;DHT22;19920;52.242;20.940;2024-01-06T10:16:50;0.30;99.90
33594;DHT22;19920;52.242;20.940;2024-01-06T10:19:16;0.30;99.90
33594;DHT22;19920;52.242;20.940;2024-01-06T10:21:42;0.30;99.90
33594;DHT22;19920;52.242;20.940;2024-01-06T10:24:08;0.30;99.90
33594;DHT22;19920;52.242;20.940;2024-01-06T10:26:35;0.30;99.90
33594;DHT22;19920;52.242;20.940;2024-01-06T10:29:00;0.40;99.90
33594;DHT22;19920;52.242;20.940;2024-01-06T10:31:26;0.30;99.90
33594;DHT22;19920;52.242;20.940;2024-01-06T10:33:52;0.30;99.90
33594;DHT22;19920;52.242;20.940;2024-01-06T10:36:18;0.20;99.90
33594;DHT22;19920;52.242;20.940;2024-01-06T10:38:46;0.30;99.90
33594;DHT22;19920;52.242;20.940;2024-01-06T10:41:13;0.20;99.90
33594;DHT22;19920;52.242;20.940;2024-01-06T10:43:41;0.00;99.90
33594;DHT22;19920;52.242;20.940;2024-01-06T10:46:09;0.10;99.90
33594;DHT22;19920;52.242;20.940;2024-01-06T10:48:37;0.00;99.90
33594;DHT22;19920;52.242;20.940;2024-01-06T10:51:11;-0.10;99.90
33594;DHT22;19920;52.242;20.940;2024-01-06T10:53:37;0.00;99.90
33594;DHT22;19920;52.242;20.940;2024-01-06T10:56:06;0.10;99.90
33594;DHT22;19920;52.242;20.940;2024-01-06T10:58:35;0.30;99.90
33594;DHT22;19920;52.242;20.940;2024-01-06T11:01:09;0.30;99.90
33594;DHT22;19920;52.242;20.940;2024-01-06T11:03:37;0.30;99.90
33594;DHT22;19920;52.242;20.940;2024-01-06T11:06:05;0.40;99.90
33594;DHT22;19920;52.242;20.940;2024-01-06T11:08:33;0.50;99.90
33594;DHT22;19920;52.242;20.940;2024-01-06T11:11:00;0.50;99.90
33594;DHT22;19920;52.242;20.940;2024-01-06T11:13:26;0.40;99.90
33594;DHT22;19920;52.242;20.940;2024-01-06T11:15:52;0.30;99.90
33594;DHT22;19920;52.242;20.940;2024-01-06T11:18:36;0.40;99.90
33594;DHT22;19920;52.242;20.940;2024-01-06T11:24:18;0.40;99.90
33594;DHT22;19920;52.242;20.940;2024-01-06T11:26:49;0.40;99.90
33594;DHT22;19920;52.242;20.940;2024-01-06T11:29:15;0.60;99.90
33594;DHT22;19920;52.242;20.940;2024-01-06T11:31:40;0.70;99.90
33594;DHT22;19920;52.242;20.940;2024-01-06T11:34:32;0.60;99.90
33594;DHT22;19920;52.242;20.940;2024-01-06T11:37:02;0.50;99.90
33594;DHT22;19920;52.242;20.940;2024-01-06T11:39:38;0.60;99.90
33594;DHT22;19920;52.242;20.940;2024-01-06T11:42:05;0.60;99.90
33594;DHT22;19920;52.242;20.940;2024-01-06T11:44:37;0.60;99.90
33594;DHT22;19920;52.242;20.940;2024-01-06T11:47:04;0.60;99.90
33594;DHT22;19920;52.242;20.940;2024-01-06T11:49:31;0.50;99.90
33594;DHT22;19920;52.242;20.940;2024-01-06T11:51:57;0.70;99.90
33594;DHT22;19920;52.242;20.940;2024-01-06T11:54:23;0.70;99.90
33594;DHT22;19920;52.242;20.940;2024-01-06T11:56:48;0.50;99.90
33594;DHT22;19920;52.242;20.940;2024-01-06T11:59:14;0.40;99.90
33594;DHT22;19920;52.242;20.940;2024-01-06T12:01:40;0.40;99.90
33594;DHT22;19920;52.242;20.940;2024-01-06T12:04:06;0.40;99.90
33594;DHT22;19920;52.242;20.940;2024-01-06T12:06:33;0.60;99.90
33594;DHT22;19920;52.242;20.940;2024-01-06T12:09:11;0.70;99.90
33594;DHT22;19920;52.242;20.940;2024-01-06T12:11:40;0.60;99.90
33594;DHT22;19920;52.242;20.940;2024-01-06T12:14:06;0.70;99.90
33594;DHT22;19920;52.242;20.940;2024-01-06T12:16:32;0.80;99.90
33594;DHT22;19920;52.242;20.940;2024-01-06T12:18:59;0.70;99.90
33594;DHT22;19920;52.242;20.940;2024-01-06T12:21:27;0.70;99.90
33594;DHT22;19920;52.242;20.940;2024-01-06T12:23:52;0.70;99.90
33594;DHT22;19920;52.242;20.940;2024-01-06T12:26:18;0.70;99.90
33594;DHT22;19920;52.242;20.940;2024-01-06T12:28:45;0.80;99.90
33594;DHT22;19920;52.242;20.940;2024-01-06T12:31:11;0.80;99.90
33594;DHT22;19920;52.242;20.940;2024-01-06T12:33:41;0.60;99.90
33594;DHT22;19920;52.242;20.940;2024-01-06T12:36:07;0.70;99.90
33594;DHT22;19920;52.242;20.940;2024-01-06T12:38:34;0.70;99.90
33594;DHT22;19920;52.242;20.940;2024-01-06T12:41:00;0.60;99.90
33594;DHT22;19920;52.242;20.940;2024-01-06T12:43:25;0.70;99.90
33594;DHT22;19920;52.242;20.940;2024-01-06T12:45:51;0.70;99.90
33594;DHT22;19920;52.242;20.940;2024-01-06T12:48:18;0.60;99.90
33594;DHT22;19920;52.242;20.940;2024-01-06T12:50:43;0.70;99.90
33594;DHT22;19920;52.242;20.940;2024-01-06T12:53:09;0.80;99.90
33594;DHT22;19920;52.242;20.940;2024-01-06T12:55:37;0.70;99.90
33594;DHT22;19920;52.242;20.940;2024-01-06T12:58:03;0.60;99.90
33594;DHT22;19920;52.242;20.940;2024-01-06T13:00:29;0.60;99.90
33594;DHT22;19920;52.242;20.940;2024-01-06T13:02:55;0.60;99.90
33594;DHT22;19920;52.242;20.940;2024-01-06T13:05:21;0.50;99.90
33594;DHT22;19920;52.242;20.940;2024-01-06T13:07:48;0.50;99.90
33594;DHT22;19920;52.242;20.940;2024-01-06T13:10:14;0.60;99.90
33594;DHT22;19920;52.242;20.940;2024-01-06T13:12:40;0.60;99.90
33594;DHT22;19920;52.242;20.940;2024-01-06T13:15:06;0.60;99.90
33594;DHT22;19920;52.242;20.940;2024-01-06T13:17:36;0.60;99.90
33594;DHT22;19920;52.242;20.940;2024-01-06T13:20:02;0.60;99.90
33594;DHT22;19920;52.242;20.940;2024-01-06T13:22:28;0.50;99.90
33594;DHT22;19920;52.242;20.940;2024-01-06T13:24:54;0.30;99.90
33594;DHT22;19920;52.242;20.940;2024-01-06T13:27:19;0.30;99.90
33594;DHT22;19920;52.242;20.940;2024-01-06T13:29:45;0.40;99.90
33594;DHT22;19920;52.242;20.940;2024-01-06T13:32:11;0.40;99.90
33594;DHT22;19920;52.242;20.940;2024-01-06T13:34:37;0.30;99.90
33594;DHT22;19920;52.242;20.940;2024-01-06T13:37:03;0.30;99.90
33594;DHT22;19920;52.242;20.940;2024-01-06T13:39:29;0.30;99.90
33594;DHT22;19920;52.242;20.940;2024-01-06T13:41:54;0.30;99.90
33594;DHT22;19920;52.242;20.940;2024-01-06T13:44:20;0.40;99.90
33594;DHT22;19920;52.242;20.940;2024-01-06T13:46:48;0.40;99.90
33594;DHT22;19920;52.242;20.940;2024-01-06T13:49:16;0.40;99.90
33594;DHT22;19920;52.242;20.940;2024-01-06T13:51:43;0.40;99.90
33594;DHT22;19920;52.242;20.940;2024-01-06T13:54:09;0.40;99.90
33594;DHT22;19920;52.242;20.940;2024-01-06T13:56:35;0.30;99.90
33594;DHT22;19920;52.242;20.940;2024-01-06T13:59:00;0.30;99.90
33594;DHT22;19920;52.242;20.940;2024-01-06T14:01:26;0.30;99.90
33594;DHT22;19920;52.242;20.940;2024-01-06T14:03:52;0.20;99.90
33594;DHT22;19920;52.242;20.940;2024-01-06T14:06:24;0.30;99.90
33594;DHT22;19920;52.242;20.940;2024-01-06T14:08:51;0.30;99.90
33594;DHT22;19920;52.242;20.940;2024-01-06T14:11:18;0.40;99.90
33594;DHT22;19920;52.242;20.940;2024-01-06T14:13:44;0.40;99.90
33594;DHT22;19920;52.242;20.940;2024-01-06T14:16:14;0.40;99.90
33594;DHT22;19920;52.242;20.940;2024-01-06T14:18:39;0.30;99.90
33594;DHT22;19920;52.242;20.940;2024-01-06T14:21:05;0.40;99.90
33594;DHT22;19920;52.242;20.940;2024-01-06T14:23:30;0.30;99.90
33594;DHT22;19920;52.242;20.940;2024-01-06T14:25:58;0.30;99.90
33594;DHT22;19920;52.242;20.940;2024-01-06T14:28:24;0.30;99.90
33594;DHT22;19920;52.242;20.940;2024-01-06T14:30:49;0.30;99.90
33594;DHT22;19920;52.242;20.940;2024-01-06T14:33:15;0.30;99.90
33594;DHT22;19920;52.242;20.940;2024-01-06T14:35:41;0.30;99.90
33594;DHT22;19920;52.242;20.940;2024-01-06T14:38:07;0.30;99.90
33594;DHT22;19920;52.242;20.940;2024-01-06T14:40:33;0.30;99.90
33594;DHT22;19920;52.242;20.940;2024-01-06T14:43:00;0.40;99.90
33594;DHT22;19920;52.242;20.940;2024-01-06T14:45:27;0.30;99.90
33594;DHT22;19920;52.242;20.940;2024-01-06T14:47:53;0.20;99.90
33594;DHT22;19920;52.242;20.940;2024-01-06T14:50:19;0.20;99.90
33594;DHT22;19920;52.242;20.940;2024-01-06T14:52:45;0.30;99.90
33594;DHT22;19920;52.242;20.940;2024-01-06T14:55:10;0.30;99.90
33594;DHT22;19920;52.242;20.940;2024-01-06T14:57:36;0.10;99.90
33594;DHT22;19920;52.242;20.940;2024-01-06T15:00:02;0.20;99.90
33594;DHT22;19920;52.242;20.940;2024-01-06T15:02:28;0.10;99.90
33594;DHT22;19920;52.242;20.940;2024-01-06T15:04:54;0.10;99.90
33594;DHT22;19920;52.242;20.940;2024-01-06T15:07:20;0.10;99.90
33594;DHT22;19920;52.242;20.940;2024-01-06T15:09:45;0.10;99.90
33594;DHT22;19920;52.242;20.940;2024-01-06T15:12:11;0.10;99.90
33594;DHT22;19920;52.242;20.940;2024-01-06T15:14:36;0.10;99.90
33594;DHT22;19920;52.242;20.940;2024-01-06T15:17:02;0.20;99.90
33594;DHT22;19920;52.242;20.940;2024-01-06T15:19:28;0.20;99.90
33594;DHT22;19920;52.242;20.940;2024-01-06T15:21:56;0.20;99.90